»·PEaware :: N4139Q KAVX-KSAN

N4139Q :: KAVX-KSAN

FLIGHT INFORMATION

Flight Status: Arrived
Operator: Privately registered:
United States
More flights under this callsign
Pilot: Joey C. (6821)
Aircraft: BEECH AIRCRAFT BARON
(BE58)
More flights by this aircraft type
Origin: KAVX Catalina
United States
Destination: KSAN San Diego Intl-Lindbergh
United States
More flights between these airports :: More routes between these airports
Route: SXC V208 OCN V23 MZB
File this flight plan on PilotEdge
Remarks: TEC route CSTP56; I-8 rating
Altitude:
(Current/Filed)
5,000ft
Speed:
(Current/Filed)
195kts
Departed: 10-Jan-20 10:51 AM
Arrived: 10-Jan-20 11:30 AM
Distance/Time
Traveled:
74nm/0:38
Distance/Time
To Go:
Arrived

Flight Plot

Page will automatically refresh every two minutes.


Map Options




Map Legend


Flown Route
Filed Route
Departure Airport
Arrival Airport
Navaid (VOR, NDB)
Fix

Horizontal Profiles

Position Reports

Time Latitude Longitude Heading Altitude Ground
Speed
10-Jan-20 10:36 33.403791 -118.414912 304 1543ft 0kts
10-Jan-20 10:37 33.403791 -118.414912 304 1543ft 0kts
10-Jan-20 10:38 33.403791 -118.414912 304 1543ft 0kts
10-Jan-20 10:39 33.403791 -118.414912 304 1543ft 0kts
10-Jan-20 10:40 33.403791 -118.414912 304 1543ft 0kts
10-Jan-20 10:41 33.403791 -118.414912 304 1543ft 0kts
10-Jan-20 10:42 33.403791 -118.414912 304 1543ft 0kts
10-Jan-20 10:43 33.404804 -118.415043 9 1543ft 10kts
10-Jan-20 10:44 33.407086 -118.411554 52 1500ft 0kts
10-Jan-20 10:45 33.407086 -118.411554 52 1500ft 0kts
10-Jan-20 10:46 33.407086 -118.411554 52 1500ft 0kts
10-Jan-20 10:47 33.407086 -118.411554 52 1500ft 0kts
10-Jan-20 10:48 33.407086 -118.411554 52 1500ft 0kts
10-Jan-20 10:49 33.407086 -118.411554 52 1500ft 0kts
10-Jan-20 10:50 33.397812 -118.430488 244 2133ft 134kts
10-Jan-20 10:51 33.374832 -118.452008 132 3661ft 167kts
10-Jan-20 10:52 33.368536 -118.389202 93 4137ft 207kts
10-Jan-20 10:53 33.362023 -118.321199 99 4824ft 203kts
10-Jan-20 10:54 33.352974 -118.252083 98 4970ft 211kts
10-Jan-20 10:55 33.344093 -118.183840 98 4965ft 207kts
10-Jan-20 10:56 33.335180 -118.116098 98 4965ft 204kts
10-Jan-20 10:57 33.326247 -118.049015 97 4967ft 204kts
10-Jan-20 10:58 33.317329 -117.982203 97 4968ft 202kts
10-Jan-20 10:59 33.308515 -117.916339 96 4970ft 200kts
10-Jan-20 11:00 33.299754 -117.851161 96 4972ft 197kts
10-Jan-20 11:01 33.291065 -117.786790 96 4972ft 195kts
10-Jan-20 11:02 33.282323 -117.723155 97 4972ft 194kts
10-Jan-20 11:03 33.272630 -117.659717 98 4972ft 193kts
10-Jan-20 11:04 33.263001 -117.596323 97 4973ft 193kts
10-Jan-20 11:05 33.254401 -117.532881 95 4974ft 193kts
10-Jan-20 11:06 33.246923 -117.469589 95 4975ft 194kts
10-Jan-20 11:07 33.225495 -117.412476 146 4972ft 202kts
10-Jan-20 11:08 33.172751 -117.388848 158 4966ft 203kts
10-Jan-20 11:09 33.119797 -117.366844 157 4956ft 201kts
10-Jan-20 11:10 33.067428 -117.344842 157 4955ft 199kts
10-Jan-20 11:11 33.014976 -117.322829 157 4957ft 199kts
10-Jan-20 11:12 32.962744 -117.300930 157 4960ft 200kts
10-Jan-20 11:13 32.910299 -117.278978 157 4967ft 199kts
10-Jan-20 11:14 32.858676 -117.257464 156 4968ft 190kts
10-Jan-20 11:15 32.831899 -117.210257 112 4973ft 175kts
10-Jan-20 11:16 32.810850 -117.158065 112 4973ft 175kts
10-Jan-20 11:17 32.789817 -117.105751 112 4973ft 175kts
10-Jan-20 11:18 32.768419 -117.053350 112 4978ft 177kts
10-Jan-20 11:19 32.746635 -117.000899 112 4660ft 174kts
10-Jan-20 11:20 32.727047 -116.953909 112 3814ft 145kts
10-Jan-20 11:21 32.711322 -116.916674 111 3838ft 107kts
10-Jan-20 11:22 32.684533 -116.929779 256 4079ft 159kts
10-Jan-20 11:23 32.682750 -116.981540 279 3739ft 157kts
10-Jan-20 11:24 32.693416 -117.027534 289 2698ft 138kts
10-Jan-20 11:25 32.704322 -117.071148 290 2199ft 130kts
10-Jan-20 11:26 32.714799 -117.112910 287 1569ft 130kts
10-Jan-20 11:27 32.724254 -117.151070 285 559ft 105kts
10-Jan-20 11:28 32.731970 -117.183110 286 15ft 84kts
10-Jan-20 11:29 32.733588 -117.184999 106 16ft 22kts
10-Jan-20 11:30 32.733332 -117.178629 127 20ft 13kts

Navigation Log

Ident Type
Flight plan parsing failed, navigation log unavailable